sensor_id;sensor_type;location;lat;lon;timestamp;P1;durP1;ratioP1;P2;durP2;ratioP2
35552;SDS011;21656;46.054;13.614;2022-10-31T08:14:44;10.23;;;3.00;;
35552;SDS011;21656;46.054;13.614;2022-10-31T08:17:10;7.65;;;3.10;;
35552;SDS011;21656;46.054;13.614;2022-10-31T08:19:36;11.45;;;2.97;;
35552;SDS011;21656;46.054;13.614;2022-10-31T08:22:01;11.20;;;2.95;;
35552;SDS011;21656;46.054;13.614;2022-10-31T08:24:27;14.88;;;4.82;;
35552;SDS011;21656;46.054;13.614;2022-10-31T08:26:52;16.15;;;3.10;;
35552;SDS011;21656;46.054;13.614;2022-10-31T08:29:18;13.43;;;3.00;;
35552;SDS011;21656;46.054;13.614;2022-10-31T08:31:43;8.25;;;2.63;;
35552;SDS011;21656;46.054;13.614;2022-10-31T08:34:08;12.20;;;2.88;;
35552;SDS011;21656;46.054;13.614;2022-10-31T08:36:34;6.72;;;2.97;;
35552;SDS011;21656;46.054;13.614;2022-10-31T08:38:59;14.15;;;2.90;;
35552;SDS011;21656;46.054;13.614;2022-10-31T08:41:25;11.75;;;2.95;;
35552;SDS011;21656;46.054;13.614;2022-10-31T08:43:51;8.45;;;2.78;;
35552;SDS011;21656;46.054;13.614;2022-10-31T08:46:16;19.20;;;4.05;;
35552;SDS011;21656;46.054;13.614;2022-10-31T08:48:42;8.15;;;2.50;;
35552;SDS011;21656;46.054;13.614;2022-10-31T08:51:08;12.10;;;2.53;;
35552;SDS011;21656;46.054;13.614;2022-10-31T08:53:34;10.13;;;2.47;;
35552;SDS011;21656;46.054;13.614;2022-10-31T08:55:59;9.35;;;1.95;;
35552;SDS011;21656;46.054;13.614;2022-10-31T08:58:25;7.93;;;2.08;;
35552;SDS011;21656;46.054;13.614;2022-10-31T09:00:51;11.07;;;2.72;;
35552;SDS011;21656;46.054;13.614;2022-10-31T09:03:21;10.00;;;2.90;;
35552;SDS011;21656;46.054;13.614;2022-10-31T09:05:48;10.38;;;2.85;;
35552;SDS011;21656;46.054;13.614;2022-10-31T09:08:14;14.65;;;3.10;;
35552;SDS011;21656;46.054;13.614;2022-10-31T09:10:41;13.38;;;2.75;;
35552;SDS011;21656;46.054;13.614;2022-10-31T09:13:09;11.07;;;2.97;;
35552;SDS011;21656;46.054;13.614;2022-10-31T09:15:37;12.77;;;3.28;;
35552;SDS011;21656;46.054;13.614;2022-10-31T09:18:06;9.57;;;2.90;;
35552;SDS011;21656;46.054;13.614;2022-10-31T09:20:33;15.80;;;3.30;;
35552;SDS011;21656;46.054;13.614;2022-10-31T09:23:00;6.85;;;2.15;;
35552;SDS011;21656;46.054;13.614;2022-10-31T09:25:27;11.80;;;2.67;;
35552;SDS011;21656;46.054;13.614;2022-10-31T09:27:57;9.32;;;2.55;;
35552;SDS011;21656;46.054;13.614;2022-10-31T09:30:24;16.17;;;2.97;;
35552;SDS011;21656;46.054;13.614;2022-10-31T09:33:04;10.80;;;2.45;;
35552;SDS011;21656;46.054;13.614;2022-10-31T09:35:30;13.43;;;2.58;;
35552;SDS011;21656;46.054;13.614;2022-10-31T09:37:57;7.65;;;2.65;;
35552;SDS011;21656;46.054;13.614;2022-10-31T09:40:27;11.23;;;2.25;;
35552;SDS011;21656;46.054;13.614;2022-10-31T09:43:03;9.77;;;2.78;;
35552;SDS011;21656;46.054;13.614;2022-10-31T09:48:23;8.25;;;2.15;;
35552;SDS011;21656;46.054;13.614;2022-10-31T09:51:39;7.20;;;2.13;;
35552;SDS011;21656;46.054;13.614;2022-10-31T09:54:06;12.00;;;2.75;;
35552;SDS011;21656;46.054;13.614;2022-10-31T09:56:53;10.80;;;3.75;;
35552;SDS011;21656;46.054;13.614;2022-10-31T09:59:26;13.50;;;3.03;;
35552;SDS011;21656;46.054;13.614;2022-10-31T10:01:58;10.57;;;2.20;;
35552;SDS011;21656;46.054;13.614;2022-10-31T10:04:44;9.40;;;2.65;;
35552;SDS011;21656;46.054;13.614;2022-10-31T10:07:14;13.35;;;2.50;;
35552;SDS011;21656;46.054;13.614;2022-10-31T10:09:47;13.68;;;2.30;;
35552;SDS011;21656;46.054;13.614;2022-10-31T10:12:19;13.68;;;3.90;;
35552;SDS011;21656;46.054;13.614;2022-10-31T10:25:37;12.38;;;2.75;;
35552;SDS011;21656;46.054;13.614;2022-10-31T10:28:47;14.45;;;3.15;;
35552;SDS011;21656;46.054;13.614;2022-10-31T10:31:05;14.68;;;3.00;;
35552;SDS011;21656;46.054;13.614;2022-10-31T10:33:39;8.38;;;2.08;;
35552;SDS011;21656;46.054;13.614;2022-10-31T10:36:10;14.18;;;2.63;;
35552;SDS011;21656;46.054;13.614;2022-10-31T10:41:15;13.02;;;4.03;;
35552;SDS011;21656;46.054;13.614;2022-10-31T10:43:42;14.48;;;2.50;;
35552;SDS011;21656;46.054;13.614;2022-10-31T10:50:06;7.22;;;2.50;;
35552;SDS011;21656;46.054;13.614;2022-10-31T11:00:17;10.80;;;3.85;;
35552;SDS011;21656;46.054;13.614;2022-10-31T11:02:44;12.00;;;3.57;;
35552;SDS011;21656;46.054;13.614;2022-10-31T11:05:13;11.27;;;3.13;;
35552;SDS011;21656;46.054;13.614;2022-10-31T11:07:47;11.00;;;3.53;;
35552;SDS011;21656;46.054;13.614;2022-10-31T11:10:13;15.68;;;2.47;;
35552;SDS011;21656;46.054;13.614;2022-10-31T11:12:40;13.38;;;3.20;;
35552;SDS011;21656;46.054;13.614;2022-10-31T11:15:16;18.08;;;3.40;;
35552;SDS011;21656;46.054;13.614;2022-10-31T11:17:53;10.25;;;2.28;;
35552;SDS011;21656;46.054;13.614;2022-10-31T11:23:00;7.32;;;2.60;;
35552;SDS011;21656;46.054;13.614;2022-10-31T11:25:30;14.98;;;2.58;;
35552;SDS011;21656;46.054;13.614;2022-10-31T11:28:00;10.75;;;2.72;;
35552;SDS011;21656;46.054;13.614;2022-10-31T11:30:36;26.52;;;13.23;;
35552;SDS011;21656;46.054;13.614;2022-10-31T11:36:14;13.68;;;3.15;;
35552;SDS011;21656;46.054;13.614;2022-10-31T11:43:52;11.00;;;2.53;;
35552;SDS011;21656;46.054;13.614;2022-10-31T11:46:56;9.95;;;2.80;;
35552;SDS011;21656;46.054;13.614;2022-10-31T11:52:05;8.98;;;1.98;;
35552;SDS011;21656;46.054;13.614;2022-10-31T11:54:40;12.25;;;2.25;;
35552;SDS011;21656;46.054;13.614;2022-10-31T11:59:52;8.73;;;2.45;;
35552;SDS011;21656;46.054;13.614;2022-10-31T12:02:21;14.85;;;2.15;;
35552;SDS011;21656;46.054;13.614;2022-10-31T12:04:48;7.68;;;2.00;;
35552;SDS011;21656;46.054;13.614;2022-10-31T12:07:22;15.85;;;3.78;;
35552;SDS011;21656;46.054;13.614;2022-10-31T12:09:48;7.32;;;2.40;;
35552;SDS011;21656;46.054;13.614;2022-10-31T12:15:15;11.40;;;2.72;;
35552;SDS011;21656;46.054;13.614;2022-10-31T12:20:23;7.13;;;2.25;;
35552;SDS011;21656;46.054;13.614;2022-10-31T12:23:03;15.25;;;2.70;;
35552;SDS011;21656;46.054;13.614;2022-10-31T13:01:39;6.28;;;2.33;;
35552;SDS011;21656;46.054;13.614;2022-10-31T13:07:06;13.20;;;3.83;;
35552;SDS011;21656;46.054;13.614;2022-10-31T13:09:42;10.30;;;2.10;;
35552;SDS011;21656;46.054;13.614;2022-10-31T13:12:17;8.85;;;2.15;;
35552;SDS011;21656;46.054;13.614;2022-10-31T13:14:49;11.32;;;2.85;;
35552;SDS011;21656;46.054;13.614;2022-10-31T13:17:36;11.05;;;3.80;;
35552;SDS011;21656;46.054;13.614;2022-10-31T13:23:08;12.07;;;5.03;;
35552;SDS011;21656;46.054;13.614;2022-10-31T13:25:40;9.55;;;2.15;;
35552;SDS011;21656;46.054;13.614;2022-10-31T13:28:21;13.65;;;3.10;;
35552;SDS011;21656;46.054;13.614;2022-10-31T13:31:00;16.35;;;3.50;;
35552;SDS011;21656;46.054;13.614;2022-10-31T13:33:31;12.95;;;6.35;;
35552;SDS011;21656;46.054;13.614;2022-10-31T13:38:37;10.32;;;2.40;;
35552;SDS011;21656;46.054;13.614;2022-10-31T13:46:43;11.27;;;1.85;;
35552;SDS011;21656;46.054;13.614;2022-10-31T13:57:18;5.30;;;2.10;;
35552;SDS011;21656;46.054;13.614;2022-10-31T13:59:54;10.20;;;2.28;;
35552;SDS011;21656;46.054;13.614;2022-10-31T14:02:32;7.07;;;2.63;;
35552;SDS011;21656;46.054;13.614;2022-10-31T14:05:02;6.60;;;2.35;;
35552;SDS011;21656;46.054;13.614;2022-10-31T14:07:30;8.15;;;2.85;;
35552;SDS011;21656;46.054;13.614;2022-10-31T14:12:35;7.03;;;2.13;;
35552;SDS011;21656;46.054;13.614;2022-10-31T14:22:54;6.28;;;1.98;;
35552;SDS011;21656;46.054;13.614;2022-10-31T14:27:54;17.80;;;3.17;;
35552;SDS011;21656;46.054;13.614;2022-10-31T14:30:21;9.35;;;2.15;;
35552;SDS011;21656;46.054;13.614;2022-10-31T14:32:50;13.13;;;2.83;;
35552;SDS011;21656;46.054;13.614;2022-10-31T14:35:18;8.05;;;2.28;;
35552;SDS011;21656;46.054;13.614;2022-10-31T14:38:01;6.38;;;1.98;;
35552;SDS011;21656;46.054;13.614;2022-10-31T14:46:41;12.32;;;2.80;;
35552;SDS011;21656;46.054;13.614;2022-10-31T14:51:46;7.88;;;1.90;;
35552;SDS011;21656;46.054;13.614;2022-10-31T14:54:20;12.70;;;2.60;;
35552;SDS011;21656;46.054;13.614;2022-10-31T14:56:54;8.95;;;2.65;;
35552;SDS011;21656;46.054;13.614;2022-10-31T14:59:25;8.82;;;2.55;;
35552;SDS011;21656;46.054;13.614;2022-10-31T15:02:07;11.27;;;2.65;;
35552;SDS011;21656;46.054;13.614;2022-10-31T15:04:39;8.48;;;3.20;;
35552;SDS011;21656;46.054;13.614;2022-10-31T15:09:41;13.63;;;2.90;;
35552;SDS011;21656;46.054;13.614;2022-10-31T15:14:48;9.48;;;3.53;;
35552;SDS011;21656;46.054;13.614;2022-10-31T15:17:14;10.88;;;3.92;;
35552;SDS011;21656;46.054;13.614;2022-10-31T15:19:40;8.55;;;3.53;;
35552;SDS011;21656;46.054;13.614;2022-10-31T15:22:09;13.23;;;3.17;;
35552;SDS011;21656;46.054;13.614;2022-10-31T15:24:41;9.85;;;3.92;;
35552;SDS011;21656;46.054;13.614;2022-10-31T15:27:14;14.00;;;4.90;;
35552;SDS011;21656;46.054;13.614;2022-10-31T15:29:51;13.60;;;5.13;;
35552;SDS011;21656;46.054;13.614;2022-10-31T15:32:22;11.23;;;4.78;;
35552;SDS011;21656;46.054;13.614;2022-10-31T15:34:52;9.07;;;3.35;;
35552;SDS011;21656;46.054;13.614;2022-10-31T15:37:20;10.80;;;3.38;;
35552;SDS011;21656;46.054;13.614;2022-10-31T15:39:47;10.48;;;3.50;;
35552;SDS011;21656;46.054;13.614;2022-10-31T15:42:20;14.15;;;6.88;;
35552;SDS011;21656;46.054;13.614;2022-10-31T15:44:51;12.00;;;3.50;;
35552;SDS011;21656;46.054;13.614;2022-10-31T15:47:22;10.43;;;3.22;;
35552;SDS011;21656;46.054;13.614;2022-10-31T15:49:53;17.02;;;5.65;;
35552;SDS011;21656;46.054;13.614;2022-10-31T15:55:31;21.35;;;11.70;;
35552;SDS011;21656;46.054;13.614;2022-10-31T15:57:55;22.48;;;12.55;;
35552;SDS011;21656;46.054;13.614;2022-10-31T16:05:37;9.65;;;5.20;;
35552;SDS011;21656;46.054;13.614;2022-10-31T16:08:26;12.75;;;3.97;;
35552;SDS011;21656;46.054;13.614;2022-10-31T16:13:36;20.38;;;10.90;;
35552;SDS011;21656;46.054;13.614;2022-10-31T16:16:03;20.33;;;11.20;;
35552;SDS011;21656;46.054;13.614;2022-10-31T16:18:38;24.17;;;12.85;;
35552;SDS011;21656;46.054;13.614;2022-10-31T16:21:06;31.85;;;18.25;;
35552;SDS011;21656;46.054;13.614;2022-10-31T16:23:32;33.85;;;17.63;;
35552;SDS011;21656;46.054;13.614;2022-10-31T16:25:58;30.80;;;19.23;;
35552;SDS011;21656;46.054;13.614;2022-10-31T16:28:25;25.83;;;12.20;;
35552;SDS011;21656;46.054;13.614;2022-10-31T16:30:52;23.02;;;10.48;;
35552;SDS011;21656;46.054;13.614;2022-10-31T16:33:23;28.70;;;12.98;;
35552;SDS011;21656;46.054;13.614;2022-10-31T16:35:49;25.63;;;12.20;;
35552;SDS011;21656;46.054;13.614;2022-10-31T16:38:15;25.17;;;12.88;;
35552;SDS011;21656;46.054;13.614;2022-10-31T16:40:40;37.42;;;15.77;;
35552;SDS011;21656;46.054;13.614;2022-10-31T16:43:12;26.58;;;14.48;;
35552;SDS011;21656;46.054;13.614;2022-10-31T16:45:58;82.13;;;31.63;;
35552;SDS011;21656;46.054;13.614;2022-10-31T16:48:23;75.07;;;31.90;;
35552;SDS011;21656;46.054;13.614;2022-10-31T16:50:49;78.57;;;33.13;;
35552;SDS011;21656;46.054;13.614;2022-10-31T16:53:15;76.75;;;33.92;;
35552;SDS011;21656;46.054;13.614;2022-10-31T16:55:45;38.13;;;18.20;;
35552;SDS011;21656;46.054;13.614;2022-10-31T16:58:18;33.45;;;16.05;;
35552;SDS011;21656;46.054;13.614;2022-10-31T17:00:46;24.77;;;11.00;;
35552;SDS011;21656;46.054;13.614;2022-10-31T17:03:12;46.20;;;20.73;;
35552;SDS011;21656;46.054;13.614;2022-10-31T17:05:38;35.20;;;21.25;;
35552;SDS011;21656;46.054;13.614;2022-10-31T17:08:03;38.00;;;17.35;;
35552;SDS011;21656;46.054;13.614;2022-10-31T17:10:29;28.83;;;14.75;;
35552;SDS011;21656;46.054;13.614;2022-10-31T17:12:55;27.15;;;13.40;;
35552;SDS011;21656;46.054;13.614;2022-10-31T17:15:25;24.25;;;11.25;;
35552;SDS011;21656;46.054;13.614;2022-10-31T17:17:52;23.90;;;10.93;;
35552;SDS011;21656;46.054;13.614;2022-10-31T17:20:26;15.70;;;7.78;;
35552;SDS011;21656;46.054;13.614;2022-10-31T17:22:54;14.48;;;7.75;;
35552;SDS011;21656;46.054;13.614;2022-10-31T17:25:21;17.55;;;7.72;;
35552;SDS011;21656;46.054;13.614;2022-10-31T17:27:48;20.70;;;8.40;;
35552;SDS011;21656;46.054;13.614;2022-10-31T17:30:15;16.90;;;7.00;;
35552;SDS011;21656;46.054;13.614;2022-10-31T17:32:42;10.68;;;6.70;;
35552;SDS011;21656;46.054;13.614;2022-10-31T17:35:09;10.85;;;5.32;;
35552;SDS011;21656;46.054;13.614;2022-10-31T17:37:36;8.80;;;4.05;;
35552;SDS011;21656;46.054;13.614;2022-10-31T17:40:02;7.82;;;3.28;;
35552;SDS011;21656;46.054;13.614;2022-10-31T17:42:28;14.38;;;4.82;;
35552;SDS011;21656;46.054;13.614;2022-10-31T17:44:53;11.02;;;4.28;;
35552;SDS011;21656;46.054;13.614;2022-10-31T17:47:19;12.48;;;4.30;;
35552;SDS011;21656;46.054;13.614;2022-10-31T17:49:44;19.15;;;4.43;;
35552;SDS011;21656;46.054;13.614;2022-10-31T17:52:09;19.80;;;9.75;;
35552;SDS011;21656;46.054;13.614;2022-10-31T17:54:35;17.67;;;10.18;;
35552;SDS011;21656;46.054;13.614;2022-10-31T17:57:00;19.58;;;8.60;;
35552;SDS011;21656;46.054;13.614;2022-10-31T17:59:26;14.52;;;5.70;;
35552;SDS011;21656;46.054;13.614;2022-10-31T18:01:54;19.20;;;11.57;;
35552;SDS011;21656;46.054;13.614;2022-10-31T18:04:20;29.67;;;16.67;;
35552;SDS011;21656;46.054;13.614;2022-10-31T18:06:45;24.45;;;10.05;;
35552;SDS011;21656;46.054;13.614;2022-10-31T18:09:13;31.02;;;17.95;;
35552;SDS011;21656;46.054;13.614;2022-10-31T18:11:39;30.42;;;16.77;;
35552;SDS011;21656;46.054;13.614;2022-10-31T18:14:05;24.58;;;13.38;;
35552;SDS011;21656;46.054;13.614;2022-10-31T18:16:30;21.85;;;10.73;;
35552;SDS011;21656;46.054;13.614;2022-10-31T18:18:56;20.70;;;9.75;;
35552;SDS011;21656;46.054;13.614;2022-10-31T18:21:30;30.20;;;11.88;;
35552;SDS011;21656;46.054;13.614;2022-10-31T18:23:56;20.90;;;8.95;;
35552;SDS011;21656;46.054;13.614;2022-10-31T18:26:24;25.20;;;11.35;;
35552;SDS011;21656;46.054;13.614;2022-10-31T18:28:50;28.15;;;9.57;;
35552;SDS011;21656;46.054;13.614;2022-10-31T18:31:16;23.02;;;9.07;;
35552;SDS011;21656;46.054;13.614;2022-10-31T18:33:41;20.33;;;9.25;;
35552;SDS011;21656;46.054;13.614;2022-10-31T18:36:08;10.70;;;6.15;;
35552;SDS011;21656;46.054;13.614;2022-10-31T18:38:43;11.68;;;5.45;;
35552;SDS011;21656;46.054;13.614;2022-10-31T18:41:12;13.70;;;5.75;;
35552;SDS011;21656;46.054;13.614;2022-10-31T18:43:38;18.90;;;7.00;;
35552;SDS011;21656;46.054;13.614;2022-10-31T18:46:05;11.35;;;5.75;;
35552;SDS011;21656;46.054;13.614;2022-10-31T18:48:32;12.68;;;5.50;;
35552;SDS011;21656;46.054;13.614;2022-10-31T18:51:02;12.70;;;4.22;;
35552;SDS011;21656;46.054;13.614;2022-10-31T18:53:29;15.00;;;4.60;;
35552;SDS011;21656;46.054;13.614;2022-10-31T18:55:54;6.68;;;3.83;;
35552;SDS011;21656;46.054;13.614;2022-10-31T18:58:20;11.07;;;4.88;;
35552;SDS011;21656;46.054;13.614;2022-10-31T19:00:45;8.57;;;3.60;;
35552;SDS011;21656;46.054;13.614;2022-10-31T19:03:11;9.73;;;3.97;;
35552;SDS011;21656;46.054;13.614;2022-10-31T19:05:37;10.68;;;5.47;;
35552;SDS011;21656;46.054;13.614;2022-10-31T19:08:03;12.77;;;5.45;;
35552;SDS011;21656;46.054;13.614;2022-10-31T19:10:29;12.30;;;4.95;;
35552;SDS011;21656;46.054;13.614;2022-10-31T19:12:54;13.88;;;5.75;;
35552;SDS011;21656;46.054;13.614;2022-10-31T19:15:19;24.80;;;7.40;;
35552;SDS011;21656;46.054;13.614;2022-10-31T19:17:45;20.95;;;5.97;;
35552;SDS011;21656;46.054;13.614;2022-10-31T19:20:11;13.63;;;5.60;;
35552;SDS011;21656;46.054;13.614;2022-10-31T19:22:37;8.73;;;4.47;;
35552;SDS011;21656;46.054;13.614;2022-10-31T19:25:03;14.70;;;4.43;;
35552;SDS011;21656;46.054;13.614;2022-10-31T19:27:29;13.00;;;4.38;;
35552;SDS011;21656;46.054;13.614;2022-10-31T19:29:54;12.05;;;6.07;;
35552;SDS011;21656;46.054;13.614;2022-10-31T19:32:20;22.02;;;10.05;;
35552;SDS011;21656;46.054;13.614;2022-10-31T19:34:45;21.27;;;10.88;;
35552;SDS011;21656;46.054;13.614;2022-10-31T19:37:10;16.25;;;7.65;;
35552;SDS011;21656;46.054;13.614;2022-10-31T19:39:36;19.45;;;6.95;;
35552;SDS011;21656;46.054;13.614;2022-10-31T19:42:01;14.98;;;6.45;;
35552;SDS011;21656;46.054;13.614;2022-10-31T19:44:27;19.60;;;5.28;;
35552;SDS011;21656;46.054;13.614;2022-10-31T19:46:54;15.50;;;5.63;;
35552;SDS011;21656;46.054;13.614;2022-10-31T19:49:20;12.80;;;6.85;;
35552;SDS011;21656;46.054;13.614;2022-10-31T19:51:45;17.38;;;4.97;;
35552;SDS011;21656;46.054;13.614;2022-10-31T19:54:11;13.32;;;4.18;;
35552;SDS011;21656;46.054;13.614;2022-10-31T19:56:36;9.05;;;5.10;;
35552;SDS011;21656;46.054;13.614;2022-10-31T19:59:01;11.70;;;4.20;;
35552;SDS011;21656;46.054;13.614;2022-10-31T20:01:28;21.85;;;11.40;;
35552;SDS011;21656;46.054;13.614;2022-10-31T20:03:53;35.42;;;18.80;;
35552;SDS011;21656;46.054;13.614;2022-10-31T20:09:12;16.05;;;4.15;;
35552;SDS011;21656;46.054;13.614;2022-10-31T20:11:39;13.90;;;4.38;;
35552;SDS011;21656;46.054;13.614;2022-10-31T20:14:05;10.20;;;4.30;;
35552;SDS011;21656;46.054;13.614;2022-10-31T20:16:32;17.98;;;7.00;;
35552;SDS011;21656;46.054;13.614;2022-10-31T20:18:58;17.58;;;8.20;;
35552;SDS011;21656;46.054;13.614;2022-10-31T20:21:25;19.00;;;8.30;;
35552;SDS011;21656;46.054;13.614;2022-10-31T20:23:55;28.27;;;9.48;;
35552;SDS011;21656;46.054;13.614;2022-10-31T20:26:22;21.55;;;9.75;;
35552;SDS011;21656;46.054;13.614;2022-10-31T20:28:48;30.95;;;16.13;;
35552;SDS011;21656;46.054;13.614;2022-10-31T20:31:15;51.03;;;24.60;;
35552;SDS011;21656;46.054;13.614;2022-10-31T20:33:42;35.10;;;15.90;;
35552;SDS011;21656;46.054;13.614;2022-10-31T20:36:08;40.08;;;19.58;;
35552;SDS011;21656;46.054;13.614;2022-10-31T20:38:37;31.77;;;18.00;;
35552;SDS011;21656;46.054;13.614;2022-10-31T20:41:04;30.02;;;13.40;;
35552;SDS011;21656;46.054;13.614;2022-10-31T20:43:31;20.98;;;11.32;;
35552;SDS011;21656;46.054;13.614;2022-10-31T20:45:57;22.60;;;9.75;;
35552;SDS011;21656;46.054;13.614;2022-10-31T20:48:27;16.90;;;7.70;;
35552;SDS011;21656;46.054;13.614;2022-10-31T20:50:59;20.42;;;9.63;;
35552;SDS011;21656;46.054;13.614;2022-10-31T20:53:27;14.25;;;8.43;;
35552;SDS011;21656;46.054;13.614;2022-10-31T20:58:49;18.75;;;7.00;;
35552;SDS011;21656;46.054;13.614;2022-10-31T21:01:19;16.38;;;8.82;;
35552;SDS011;21656;46.054;13.614;2022-10-31T21:03:46;26.42;;;9.68;;
35552;SDS011;21656;46.054;13.614;2022-10-31T21:06:13;17.77;;;6.90;;
35552;SDS011;21656;46.054;13.614;2022-10-31T21:08:40;14.25;;;5.75;;
35552;SDS011;21656;46.054;13.614;2022-10-31T21:11:08;11.95;;;4.90;;
35552;SDS011;21656;46.054;13.614;2022-10-31T21:13:36;13.43;;;3.85;;
35552;SDS011;21656;46.054;13.614;2022-10-31T21:16:03;22.25;;;6.88;;
35552;SDS011;21656;46.054;13.614;2022-10-31T21:18:31;15.55;;;6.97;;
35552;SDS011;21656;46.054;13.614;2022-10-31T21:20:58;16.92;;;7.50;;
35552;SDS011;21656;46.054;13.614;2022-10-31T21:23:24;13.45;;;7.28;;
35552;SDS011;21656;46.054;13.614;2022-10-31T21:25:49;15.43;;;5.53;;
35552;SDS011;21656;46.054;13.614;2022-10-31T21:28:15;15.77;;;5.47;;
35552;SDS011;21656;46.054;13.614;2022-10-31T21:30:45;13.30;;;5.07;;
35552;SDS011;21656;46.054;13.614;2022-10-31T21:33:12;18.42;;;5.75;;
35552;SDS011;21656;46.054;13.614;2022-10-31T21:35:38;10.02;;;5.18;;
35552;SDS011;21656;46.054;13.614;2022-10-31T21:38:03;14.38;;;5.47;;
35552;SDS011;21656;46.054;13.614;2022-10-31T21:40:29;10.82;;;5.50;;
35552;SDS011;21656;46.054;13.614;2022-10-31T21:42:54;13.30;;;4.25;;
35552;SDS011;21656;46.054;13.614;2022-10-31T21:45:20;9.82;;;3.83;;
35552;SDS011;21656;46.054;13.614;2022-10-31T21:47:46;14.85;;;4.95;;
